Time;durP1;ratioP1;P1;durP2;ratioP2;P2;SDS_P1;SDS_P2;PMS_P1;PMS_P2;Temp;Humidity;BMP_temperature;BMP_pressure;BME280_temperature;BME280_humidity;BME280_pressure;Samples;Min_cycle;Max_cycle;Signal;HPM_P1;HPM_P2
2021/01/20 00:01:58;;;;;;;2.70;1.67;;;;;;;5.26;53.95;96189.84;5061413;28;20218;-68
2021/01/20 00:04:24;;;;;;;2.80;2.00;;;;;;;5.16;53.96;96181.28;5068489;28;20213;-69
2021/01/20 00:06:50;;;;;;;2.80;1.83;;;;;;;5.31;53.62;96184.22;5063320;28;20602;-69
2021/01/20 00:09:16;;;;;;;2.00;1.67;;;;;;;5.29;53.89;96180.94;5071735;28;20182;-67
2021/01/20 00:11:42;;;;;;;2.40;1.87;;;;;;;5.20;54.56;96177.41;5070220;28;20269;-68
2021/01/20 00:14:10;;;;;;;1.87;1.67;;;;;;;5.12;54.27;96170.31;5064035;28;20529;-68
2021/01/20 00:16:35;;;;;;;3.60;2.30;;;;;;;5.20;54.17;96164.41;5071724;28;20189;-68
2021/01/20 00:19:01;;;;;;;2.60;1.87;;;;;;;5.11;55.01;96165.28;5071246;28;20417;-69
2021/01/20 00:21:27;;;;;;;2.47;1.90;;;;;;;5.00;55.98;96174.91;5071543;28;20190;-70
2021/01/20 00:23:52;;;;;;;1.83;1.73;;;;;;;4.91;55.42;96161.00;5071198;28;20210;-69
2021/01/20 00:26:18;;;;;;;4.00;2.27;;;;;;;4.90;56.51;96158.53;5067481;28;20232;-68
2021/01/20 00:28:44;;;;;;;2.43;1.80;;;;;;;5.00;55.63;96151.53;5070949;28;20200;-69
2021/01/20 00:31:11;;;;;;;2.13;1.80;;;;;;;4.99;55.64;96154.25;5085681;28;20186;-68
2021/01/20 00:33:37;;;;;;;1.70;1.60;;;;;;;4.93;55.75;96150.44;5072734;28;20203;-67
2021/01/20 00:36:03;;;;;;;2.80;2.07;;;;;;;4.79;57.21;96156.13;5072529;28;20494;-67
2021/01/20 00:38:28;;;;;;;1.90;1.80;;;;;;;4.74;57.48;96148.75;5072957;28;20182;-69
2021/01/20 00:40:54;;;;;;;3.30;2.30;;;;;;;4.91;57.07;96144.59;5071580;28;20941;-68
2021/01/20 00:43:20;;;;;;;3.40;2.27;;;;;;;4.77;57.45;96138.06;5059457;28;20222;-69
2021/01/20 00:45:45;;;;;;;4.20;2.07;;;;;;;4.79;57.18;96140.56;5072657;28;20189;-68
2021/01/20 00:48:11;;;;;;;2.47;2.27;;;;;;;4.59;58.22;96138.00;5072695;28;20186;-67
2021/01/20 00:50:37;;;;;;;2.23;1.90;;;;;;;4.86;57.18;96136.41;5064804;28;20190;-67
2021/01/20 00:53:03;;;;;;;2.80;1.93;;;;;;;4.78;57.27;96139.72;5071361;28;20289;-69
2021/01/20 00:55:29;;;;;;;2.53;1.83;;;;;;;4.86;57.71;96131.22;5065938;28;20786;-68
2021/01/20 00:57:54;;;;;;;2.27;2.07;;;;;;;4.72;57.98;96125.53;5070334;28;20524;-68
2021/01/20 01:00:21;;;;;;;3.13;2.07;;;;;;;5.00;57.88;96128.16;5072887;28;20361;-69
2021/01/20 01:02:46;;;;;;;2.03;1.70;;;;;;;4.86;57.73;96131.22;5071983;28;20581;-68
2021/01/20 01:05:12;;;;;;;2.23;2.03;;;;;;;4.78;58.07;96137.13;5072788;28;20467;-69
2021/01/20 01:07:38;;;;;;;2.87;2.10;;;;;;;4.81;58.34;96128.22;5072881;28;20186;-67
2021/01/20 01:10:05;;;;;;;2.00;1.67;;;;;;;4.65;59.00;96124.47;5071886;28;20534;-69
2021/01/20 01:12:30;;;;;;;2.37;1.93;;;;;;;4.88;57.99;96129.31;5069000;28;20190;-69
2021/01/20 01:14:56;;;;;;;5.90;2.50;;;;;;;4.83;58.56;96124.53;5065233;28;20904;-67
2021/01/20 01:17:22;;;;;;;2.50;2.10;;;;;;;4.87;58.64;96122.47;5071614;28;20196;-68
2021/01/20 01:19:47;;;;;;;4.40;2.37;;;;;;;4.81;58.85;96128.22;5071433;28;20198;-68
2021/01/20 01:22:13;;;;;;;2.03;1.83;;;;;;;4.84;58.94;96127.94;5071758;28;20182;-69
2021/01/20 01:24:39;;;;;;;1.67;1.57;;;;;;;4.99;57.76;96117.91;5070960;28;20209;-67
2021/01/20 01:27:05;;;;;;;2.07;1.87;;;;;;;5.05;58.18;96118.13;5062696;28;20214;-69
2021/01/20 01:29:31;;;;;;;2.70;2.03;;;;;;;5.11;57.71;96114.16;5071497;28;20421;-68
2021/01/20 01:31:56;;;;;;;2.73;2.00;;;;;;;5.16;57.96;96116.34;5066174;28;20179;-69
2021/01/20 01:34:23;;;;;;;2.00;1.70;;;;;;;4.95;58.52;96114.78;5074776;28;20612;-68
2021/01/20 01:36:48;;;;;;;2.63;1.70;;;;;;;5.05;58.52;96120.72;5074446;28;20191;-68
2021/01/20 01:39:14;;;;;;;2.07;1.80;;;;;;;5.13;58.46;96108.81;5074759;28;20424;-67
2021/01/20 01:41:41;;;;;;;3.37;2.10;;;;;;;4.98;58.88;96114.50;5067042;28;20183;-67
2021/01/20 01:44:08;;;;;;;2.40;2.20;;;;;;;5.10;58.53;96114.31;5068915;28;20475;-69
2021/01/20 01:46:34;;;;;;;2.23;1.90;;;;;;;5.07;58.41;96107.63;5075995;28;20431;-69
2021/01/20 01:49:00;;;;;;;2.33;2.10;;;;;;;5.23;57.56;96110.38;5070320;28;20432;-68
2021/01/20 01:51:26;;;;;;;2.63;2.17;;;;;;;5.20;58.23;96109.88;5075297;28;20512;-69
2021/01/20 01:53:53;;;;;;;2.17;1.97;;;;;;;5.02;58.17;96110.66;5073368;28;20448;-68
2021/01/20 01:56:19;;;;;;;2.00;1.87;;;;;;;5.08;58.01;96104.06;5072913;28;20186;-68
2021/01/20 01:58:47;;;;;;;2.40;2.20;;;;;;;4.95;58.72;96109.59;5074273;28;20432;-68
2021/01/20 02:01:14;;;;;;;2.50;2.03;;;;;;;5.08;58.46;96104.06;5073139;28;20764;-68
2021/01/20 02:03:40;;;;;;;1.47;1.33;;;;;;;5.04;58.28;96102.72;5073884;28;20464;-68
2021/01/20 02:06:05;;;;;;;2.30;1.90;;;;;;;4.98;58.43;96096.31;5074118;28;20981;-68
2021/01/20 02:08:32;;;;;;;4.07;1.90;;;;;;;5.07;58.04;96095.44;5070177;28;20273;-67
2021/01/20 02:11:03;;;;;;;3.80;1.80;;;;;;;5.13;57.71;96095.84;5072916;28;20182;-69
2021/01/20 02:13:55;;;;;;;2.17;1.97;;;;;;;5.00;58.26;96097.00;5073965;28;20441;-68
2021/01/20 02:16:26;;;;;;;2.00;1.90;;;;;;;4.91;58.77;96087.47;5074248;28;20482;-68
2021/01/20 02:18:53;;;;;;;2.70;1.80;;;;;;;5.00;58.99;96091.81;5073307;28;20927;-68
2021/01/20 02:21:34;;;;;;;2.57;2.20;;;;;;;5.15;58.15;96093.91;5072991;28;20482;-67
2021/01/20 02:24:01;;;;;;;2.40;1.57;;;;;;;5.11;58.45;96089.97;5073529;28;20578;-68
2021/01/20 02:26:35;;;;;;;3.07;1.80;;;;;;;5.13;58.66;96095.84;5072944;28;20478;-67
2021/01/20 02:29:10;;;;;;;1.80;1.70;;;;;;;5.10;58.38;96088.31;5064283;28;20439;-68
2021/01/20 02:31:36;;;;;;;1.90;1.70;;;;;;;5.21;57.60;96090.72;5073821;28;20495;-67
2021/01/20 02:34:04;;;;;;;1.90;1.80;;;;;;;5.17;58.20;96095.41;5071862;28;20449;-69
2021/01/20 02:36:30;;;;;;;3.47;2.03;;;;;;;5.23;58.08;96091.41;5072258;28;20431;-69
2021/01/20 02:38:57;;;;;;;1.83;1.60;;;;;;;5.38;57.69;96092.53;5072253;28;20959;-69
2021/01/20 02:41:29;;;;;;;1.77;1.53;;;;;;;5.43;57.12;96093.84;5048965;28;20450;-68
2021/01/20 02:44:03;;;;;;;2.90;1.60;;;;;;;5.31;58.00;96095.88;5062533;28;20975;-70
2021/01/20 02:46:30;;;;;;;1.77;1.67;;;;;;;5.25;58.12;96084.28;5073693;28;20513;-68
2021/01/20 02:48:56;;;;;;;1.90;1.30;;;;;;;5.30;57.90;96084.63;5073182;28;20520;-68
2021/01/20 02:51:33;;;;;;;2.00;1.60;;;;;;;5.20;58.14;96081.28;5068253;28;20994;-67
2021/01/20 02:54:00;;;;;;;1.90;1.70;;;;;;;5.25;57.63;96081.69;5070233;28;20433;-68
2021/01/20 02:56:26;;;;;;;2.27;1.80;;;;;;;5.15;57.93;96081.72;5071930;28;20425;-68
2021/01/20 02:58:52;;;;;;;2.70;1.73;;;;;;;4.94;58.61;96069.00;5071853;28;20949;-69
2021/01/20 03:01:19;;;;;;;1.60;1.50;;;;;;;5.14;58.05;96071.50;5072215;28;20428;-68
2021/01/20 03:03:46;;;;;;;2.40;2.20;;;;;;;4.99;58.50;96073.75;5072707;28;20489;-69
2021/01/20 03:06:15;;;;;;;3.47;1.90;;;;;;;5.29;57.70;96066.63;5073174;28;20840;-68
2021/01/20 03:08:41;;;;;;;2.23;1.60;;;;;;;5.22;57.80;96068.97;5068948;28;20915;-67
2021/01/20 03:11:07;;;;;;;3.00;2.10;;;;;;;5.16;58.18;96062.59;5071465;28;20428;-67
2021/01/20 03:13:36;;;;;;;2.10;1.90;;;;;;;5.14;57.63;96068.91;5066717;28;20578;-68
2021/01/20 03:16:03;;;;;;;2.20;2.00;;;;;;;5.13;58.05;96067.28;5071429;28;20226;-68
2021/01/20 03:18:28;;;;;;;2.10;1.90;;;;;;;4.93;58.25;96064.75;5071760;28;21013;-67
2021/01/20 03:20:54;;;;;;;2.20;2.00;;;;;;;4.92;58.38;96060.53;5064325;28;20529;-69
2021/01/20 03:23:20;;;;;;;3.27;2.27;;;;;;;4.87;59.46;96049.78;5072154;28;20256;-68
2021/01/20 03:25:45;;;;;;;3.37;2.30;;;;;;;4.87;58.63;96049.78;5069478;28;20206;-68
2021/01/20 03:28:11;;;;;;;2.73;2.27;;;;;;;4.74;58.88;96045.75;5063740;28;20194;-67
2021/01/20 03:30:36;;;;;;;2.70;2.17;;;;;;;4.74;58.75;96043.16;5072594;28;20189;-68
2021/01/20 03:33:02;;;;;;;3.23;2.23;;;;;;;4.56;60.09;96058.66;5072128;28;20292;-67
2021/01/20 03:35:28;;;;;;;3.83;2.47;;;;;;;4.84;59.26;96047.47;5072324;28;20182;-68
2021/01/20 03:37:54;;;;;;;2.53;2.07;;;;;;;4.97;58.79;96045.34;5064041;28;20182;-69
2021/01/20 03:40:19;;;;;;;2.40;2.20;;;;;;;4.75;59.63;96056.94;5072030;28;20185;-69
2021/01/20 03:42:45;;;;;;;2.77;2.23;;;;;;;4.87;59.35;96044.59;5057521;28;20694;-68
2021/01/20 03:45:11;;;;;;;2.40;2.00;;;;;;;5.02;59.11;96045.72;5067752;28;20284;-68
2021/01/20 03:47:37;;;;;;;2.50;2.23;;;;;;;4.97;58.84;96047.13;5072469;28;20652;-68
2021/01/20 03:50:03;;;;;;;2.87;2.30;;;;;;;4.97;58.97;96053.13;5076054;28;20451;-70
2021/01/20 03:52:29;;;;;;;2.50;2.20;;;;;;;5.01;59.04;96048.47;5071659;28;20550;-68
2021/01/20 03:54:57;;;;;;;2.10;1.90;;;;;;;5.01;58.79;96038.06;5077969;28;20482;-68
2021/01/20 03:57:23;;;;;;;2.20;1.97;;;;;;;5.10;58.97;96045.00;5072345;28;20195;-68
2021/01/20 03:59:49;;;;;;;3.37;2.03;;;;;;;5.11;58.80;96036.22;5071913;28;20437;-68
2021/01/20 04:02:14;;;;;;;2.30;2.10;;;;;;;5.02;58.83;96035.34;5072076;28;20519;-68
2021/01/20 04:04:40;;;;;;;2.70;2.30;;;;;;;5.13;59.00;96042.09;5072090;28;20259;-68
2021/01/20 04:07:06;;;;;;;2.13;1.83;;;;;;;5.04;59.65;96027.41;5071506;28;20703;-68
2021/01/20 04:09:31;;;;;;;3.30;1.70;;;;;;;5.08;59.14;96026.97;5072794;28;20642;-68
2021/01/20 04:11:57;;;;;;;2.53;2.33;;;;;;;5.11;59.40;96027.63;5073919;28;20687;-68
2021/01/20 04:14:23;;;;;;;1.90;1.70;;;;;;;4.91;59.24;96025.16;5065918;28;20798;-67
2021/01/20 04:16:49;;;;;;;1.60;1.50;;;;;;;4.90;59.90;96029.53;5073531;28;20187;-68
2021/01/20 04:19:15;;;;;;;1.97;1.80;;;;;;;5.05;59.65;96022.06;5074728;28;20511;-68
2021/01/20 04:21:40;;;;;;;1.70;1.53;;;;;;;5.19;58.43;96025.09;5074625;28;20602;-67
2021/01/20 04:24:07;;;;;;;1.90;1.80;;;;;;;5.44;58.08;96022.72;5066735;28;20211;-68
2021/01/20 04:26:32;;;;;;;1.50;1.40;;;;;;;5.53;57.32;96014.06;5067307;28;20186;-69
2021/01/20 04:28:58;;;;;;;3.40;2.00;;;;;;;5.47;57.42;96017.25;5063366;28;20429;-68
2021/01/20 04:31:24;;;;;;;3.30;1.77;;;;;;;5.49;57.83;96013.53;5073700;28;20197;-68
2021/01/20 04:33:50;;;;;;;2.43;1.67;;;;;;;5.72;56.57;96007.03;5042483;28;20210;-68
2021/01/20 04:36:15;;;;;;;1.60;1.50;;;;;;;5.66;57.07;96000.66;5064359;28;20272;-68
2021/01/20 04:38:41;;;;;;;3.90;1.80;;;;;;;5.75;56.96;96004.16;5065066;28;20233;-69
2021/01/20 04:41:07;;;;;;;2.90;1.80;;;;;;;5.80;56.18;95999.28;5054818;28;20252;-69
2021/01/20 04:43:33;;;;;;;1.70;1.60;;;;;;;5.79;56.33;95998.50;5055923;28;20222;-68
2021/01/20 04:45:59;;;;;;;3.20;1.70;;;;;;;5.74;56.02;95998.13;5050114;28;20611;-68
2021/01/20 04:48:31;;;;;;;1.70;1.60;;;;;;;5.75;56.24;95996.34;5050034;28;20199;-69
2021/01/20 04:50:58;;;;;;;2.90;1.80;;;;;;;5.79;56.44;95992.50;5050060;28;20433;-69
2021/01/20 04:53:24;;;;;;;2.00;1.80;;;;;;;5.82;55.98;95999.97;5049681;28;20457;-67
2021/01/20 04:55:50;;;;;;;3.33;1.90;;;;;;;5.81;55.68;95991.38;5050098;28;20429;-68
2021/01/20 04:58:16;;;;;;;2.23;1.90;;;;;;;5.70;56.40;96004.59;5050535;28;20516;-67
2021/01/20 05:00:42;;;;;;;2.20;1.50;;;;;;;5.63;56.44;95998.38;5053224;28;20204;-68
2021/01/20 05:03:09;;;;;;;3.40;1.93;;;;;;;5.79;55.90;96008.09;5065390;28;20202;-68
2021/01/20 05:05:35;;;;;;;1.93;1.63;;;;;;;5.64;56.68;96006.03;5052709;28;20214;-68
2021/01/20 05:08:02;;;;;;;2.17;1.80;;;;;;;5.68;56.45;96002.13;5055184;28;20426;-66
2021/01/20 05:10:28;;;;;;;5.00;1.70;;;;;;;5.73;56.05;96006.91;5055469;28;20421;-68
2021/01/20 05:12:54;;;;;;;3.30;1.90;;;;;;;5.83;55.63;95989.44;5054904;28;20456;-68
2021/01/20 05:15:32;;;;;;;2.47;1.80;;;;;;;5.81;55.61;95995.72;5055191;28;20778;-68
2021/01/20 05:17:59;;;;;;;3.20;2.07;;;;;;;5.84;55.63;95991.06;5053772;28;20187;-67
2021/01/20 05:20:37;;;;;;;1.70;1.50;;;;;;;5.67;55.64;95994.50;5055204;28;20440;-69
2021/01/20 05:23:04;;;;;;;2.93;2.30;;;;;;;5.73;55.64;96000.88;5054485;28;20459;-68
2021/01/20 05:25:35;;;;;;;4.60;1.87;;;;;;;5.82;55.51;95995.59;5063710;28;20956;-68
2021/01/20 05:28:19;;;;;;;6.17;1.90;;;;;;;5.81;55.13;95995.72;5062818;28;20428;-68
2021/01/20 05:30:50;;;;;;;2.30;2.03;;;;;;;5.93;55.05;95999.72;5054702;28;20444;-67
2021/01/20 05:33:17;;;;;;;1.83;1.60;;;;;;;5.92;55.05;95998.09;5057835;28;20444;-68
2021/01/20 05:35:44;;;;;;;5.87;2.20;;;;;;;5.85;55.18;96002.28;5054818;28;20514;-68
2021/01/20 05:38:10;;;;;;;2.87;2.20;;;;;;;6.07;54.78;96005.34;5048826;28;20432;-68
2021/01/20 05:40:36;;;;;;;6.40;2.10;;;;;;;5.85;55.11;96002.28;5059198;28;20947;-67
2021/01/20 05:43:03;;;;;;;3.37;2.37;;;;;;;5.78;55.03;96002.06;5065067;28;20458;-70
2021/01/20 05:45:29;;;;;;;2.03;1.90;;;;;;;5.58;55.86;95998.81;5059873;28;20489;-69
2021/01/20 05:48:09;;;;;;;2.20;2.00;;;;;;;5.55;55.98;95996.50;5055918;28;20846;-68
2021/01/20 05:50:37;;;;;;;3.77;1.97;;;;;;;5.65;56.01;96005.06;5059353;28;20216;-69
2021/01/20 05:53:10;;;;;;;2.03;1.73;;;;;;;5.77;55.49;95990.03;5059301;28;20978;-68
2021/01/20 05:55:38;;;;;;;2.90;2.40;;;;;;;5.69;55.23;95987.38;5054802;28;20892;-68
2021/01/20 05:58:07;;;;;;;2.40;2.13;;;;;;;5.93;55.13;95989.31;5056908;28;20425;-68
2021/01/20 06:00:33;;;;;;;3.40;2.37;;;;;;;5.69;55.25;95982.19;5066162;28;20932;-69
2021/01/20 06:02:58;;;;;;;4.00;2.30;;;;;;;5.95;54.79;95987.38;5065535;28;20444;-69
2021/01/20 06:05:25;;;;;;;4.00;2.33;;;;;;;6.03;54.52;95978.03;5054182;28;20256;-68
2021/01/20 06:07:52;;;;;;;5.63;2.30;;;;;;;5.95;54.57;95982.19;5063351;28;20186;-69
2021/01/20 06:10:23;;;;;;;3.80;2.20;;;;;;;5.82;55.05;95976.56;5054041;28;20942;-69
2021/01/20 06:12:49;;;;;;;2.60;2.40;;;;;;;5.68;55.06;95985.75;5053722;28;20530;-69
2021/01/20 06:15:15;;;;;;;3.30;2.47;;;;;;;5.91;54.56;95980.88;5058450;28;20430;-69
2021/01/20 06:17:43;;;;;;;3.60;2.10;;;;;;;6.15;54.57;95982.00;5057103;28;20433;-69
2021/01/20 06:20:11;;;;;;;2.23;2.00;;;;;;;6.32;53.90;95977.69;5046090;28;20432;-69
2021/01/20 06:22:56;;;;;;;3.40;2.27;;;;;;;6.35;53.79;95981.78;5052740;28;20467;-68
2021/01/20 06:25:32;;;;;;;2.40;2.07;;;;;;;6.11;53.98;95980.69;5052723;28;20540;-68
2021/01/20 06:28:09;;;;;;;2.50;2.30;;;;;;;6.18;53.58;95992.09;5053732;28;20869;-69
2021/01/20 06:30:44;;;;;;;2.23;1.80;;;;;;;6.19;53.44;95990.31;5054134;28;20427;-68
2021/01/20 06:33:12;;;;;;;1.80;1.50;;;;;;;6.09;53.74;95990.41;5048665;28;20452;-68
2021/01/20 06:35:42;;;;;;;2.07;1.67;;;;;;;6.24;53.10;95985.44;5054781;28;20509;-68
2021/01/20 06:38:40;;;;;;;2.60;1.90;;;;;;;6.29;53.36;95984.03;5065527;28;20531;-68
2021/01/20 06:41:07;;;;;;;2.83;2.20;;;;;;;6.45;52.89;95982.47;5046715;28;20436;-68
2021/01/20 06:43:33;;;;;;;2.30;2.10;;;;;;;6.35;52.91;95984.38;5056492;28;20466;-68
2021/01/20 06:46:15;;;;;;;6.10;4.37;;;;;;;6.45;52.97;95987.66;5069813;28;20984;-67
2021/01/20 06:48:56;;;;;;;2.60;2.20;;;;;;;6.45;52.91;95978.09;5071272;28;20959;-68
2021/01/20 06:51:23;;;;;;;2.23;1.97;;;;;;;6.49;52.85;95978.59;5071493;28;20428;-69
2021/01/20 06:56:45;;;;;;;2.57;2.07;;;;;;;6.54;52.78;95981.53;5071138;28;20425;-67
2021/01/20 06:59:27;;;;;;;3.40;2.60;;;;;;;6.47;52.59;95979.72;5055280;28;20432;-67
2021/01/20 07:02:02;;;;;;;2.53;1.80;;;;;;;6.44;52.58;95978.22;5070642;28;20457;-68
2021/01/20 07:04:39;;;;;;;5.33;2.70;;;;;;;6.48;52.63;95971.75;5070539;28;20499;-69
2021/01/20 07:07:09;;;;;;;3.50;2.40;;;;;;;6.37;52.92;95974.63;5053706;28;20473;-68
2021/01/20 07:09:49;;;;;;;5.13;2.73;;;;;;;6.48;52.80;95970.94;5071033;28;20807;-67
2021/01/20 07:12:21;;;;;;;4.30;2.43;;;;;;;6.50;52.57;95969.81;5053921;28;20435;-68
2021/01/20 07:14:49;;;;;;;3.70;2.20;;;;;;;6.51;52.53;95963.63;5069987;28;20452;-69
2021/01/20 07:17:16;;;;;;;3.57;2.20;;;;;;;6.50;52.53;95964.59;5070798;28;20447;-69
2021/01/20 07:19:43;;;;;;;4.17;1.80;;;;;;;6.50;52.94;95964.59;5072935;28;20432;-67
2021/01/20 07:22:10;;;;;;;2.07;1.87;;;;;;;6.54;52.10;95965.09;5065186;28;20423;-67
2021/01/20 07:24:36;;;;;;;3.63;2.57;;;;;;;6.59;51.99;95961.03;5072736;28;20467;-69
2021/01/20 07:27:09;;;;;;;5.20;2.57;;;;;;;6.55;52.32;95959.72;5062421;28;20936;-69
2021/01/20 07:29:36;;;;;;;6.37;1.90;;;;;;;6.53;52.29;95960.84;5068419;28;20182;-69
2021/01/20 07:32:02;;;;;;;2.33;1.80;;;;;;;6.60;52.07;95957.47;5073198;28;20425;-68
2021/01/20 07:34:38;;;;;;;12.37;2.50;;;;;;;6.66;51.51;95955.22;5072513;28;20441;-68
2021/01/20 07:37:13;;;;;;;2.57;2.00;;;;;;;6.68;51.85;95956.69;5072558;28;20429;-68
2021/01/20 07:39:39;;;;;;;2.70;1.87;;;;;;;6.62;51.82;95957.31;5072833;28;20828;-67
2021/01/20 07:42:06;;;;;;;4.27;2.97;;;;;;;6.65;51.64;95951.78;5072799;28;20421;-70
2021/01/20 07:44:32;;;;;;;4.07;3.07;;;;;;;6.66;51.70;95952.63;5069693;28;20448;-69
2021/01/20 07:47:05;;;;;;;3.30;2.53;;;;;;;6.50;52.19;95948.97;5074745;28;20425;-68
2021/01/20 07:49:35;;;;;;;3.83;2.40;;;;;;;6.58;52.16;95945.59;5073722;28;20425;-68
2021/01/20 07:52:10;;;;;;;6.90;2.70;;;;;;;6.59;51.91;95953.25;5071696;28;20425;-67
2021/01/20 07:54:40;;;;;;;4.60;2.70;;;;;;;6.67;51.94;95946.44;5068091;28;20527;-69
2021/01/20 07:57:08;;;;;;;4.67;2.50;;;;;;;6.70;52.25;95944.31;5071330;28;21255;-69
2021/01/20 07:59:34;;;;;;;6.63;3.00;;;;;;;6.70;52.29;95948.72;5071070;28;20431;-69
2021/01/20 08:02:07;;;;;;;3.40;2.43;;;;;;;6.69;52.06;95953.13;5072207;28;20420;-71
2021/01/20 08:04:33;;;;;;;9.93;3.37;;;;;;;6.71;51.85;95943.34;5072121;28;20469;-69
2021/01/20 08:07:00;;;;;;;7.60;2.90;;;;;;;6.75;51.96;95951.66;5071931;28;20795;-69
2021/01/20 08:09:44;;;;;;;6.43;2.77;;;;;;;6.75;51.67;95955.06;5072154;28;20458;-70
2021/01/20 08:12:31;;;;;;;5.00;2.50;;;;;;;6.85;51.75;95952.34;5056382;28;20475;-67
2021/01/20 08:14:57;;;;;;;2.57;2.37;;;;;;;6.72;52.09;95947.59;5035563;28;20439;-69
2021/01/20 08:17:23;;;;;;;3.40;2.07;;;;;;;6.66;52.19;95939.59;5071010;28;20417;-70
2021/01/20 08:19:49;;;;;;;3.27;2.33;;;;;;;6.57;51.74;95934.34;5070441;28;20501;-70
2021/01/20 08:22:16;;;;;;;3.43;2.10;;;;;;;6.61;52.05;95940.88;5071108;28;20524;-69
2021/01/20 08:24:49;;;;;;;4.40;2.40;;;;;;;6.72;51.66;95931.97;5062635;28;20449;-68
2021/01/20 08:27:18;;;;;;;2.77;2.03;;;;;;;6.82;51.58;95929.19;5060490;28;20451;-69
2021/01/20 08:29:51;;;;;;;3.13;2.40;;;;;;;6.96;51.22;95932.16;5045875;28;20985;-69
2021/01/20 08:32:17;;;;;;;3.90;2.50;;;;;;;6.70;51.13;95936.53;5042923;28;20802;-69
2021/01/20 08:34:44;;;;;;;5.30;2.70;;;;;;;6.79;51.02;95929.53;5048995;28;20461;-69
2021/01/20 08:37:20;;;;;;;4.20;2.30;;;;;;;6.81;51.21;95939.78;5049931;28;20198;-68
2021/01/20 08:39:53;;;;;;;3.20;2.30;;;;;;;6.90;51.15;95939.66;5051309;28;20501;-70
2021/01/20 08:42:22;;;;;;;4.13;2.37;;;;;;;6.94;50.79;95929.72;5051887;28;20425;-70
2021/01/20 08:45:07;;;;;;;3.00;2.50;;;;;;;6.78;50.98;95930.53;5051928;28;20468;-70
2021/01/20 08:47:54;;;;;;;3.40;2.33;;;;;;;6.87;50.65;95926.13;5051590;28;20409;-69
2021/01/20 08:50:34;;;;;;;2.90;2.60;;;;;;;6.86;50.72;95927.91;5045672;28;20434;-71
2021/01/20 08:53:02;;;;;;;3.57;2.70;;;;;;;7.00;50.59;95923.84;5051921;28;20433;-69
2021/01/20 08:55:31;;;;;;;2.90;2.10;;;;;;;6.98;50.88;95918.03;5061441;28;20431;-70
2021/01/20 08:58:15;;;;;;;3.97;2.63;;;;;;;7.16;50.35;95911.81;5053118;28;20460;-70
2021/01/20 09:00:42;;;;;;;5.63;3.80;;;;;;;7.16;50.49;95915.25;5044347;28;20898;-69
2021/01/20 09:03:18;;;;;;;3.83;2.83;;;;;;;6.89;50.82;95909.38;5051218;28;20453;-70
2021/01/20 09:05:45;;;;;;;2.83;2.27;;;;;;;7.10;50.25;95905.47;5049710;28;20831;-67
2021/01/20 09:08:10;;;;;;;3.30;2.50;;;;;;;6.81;50.63;95906.75;5043502;28;20433;-70
2021/01/20 09:10:37;;;;;;;4.03;2.30;;;;;;;6.90;50.56;95908.41;5052438;28;20791;-70
2021/01/20 09:13:03;;;;;;;3.00;2.30;;;;;;;7.09;50.80;95901.25;5052294;28;20210;-69
2021/01/20 09:15:29;;;;;;;2.17;1.97;;;;;;;7.14;50.13;95893.75;5051763;28;20744;-69
2021/01/20 09:17:54;;;;;;;2.93;2.03;;;;;;;6.94;50.95;95893.25;5051275;28;20479;-70
2021/01/20 09:20:20;;;;;;;3.23;2.43;;;;;;;7.21;50.32;95889.50;5051513;28;20419;-70
2021/01/20 09:22:47;;;;;;;3.70;2.87;;;;;;;7.18;50.46;95899.47;5051492;28;20257;-71
2021/01/20 09:25:13;;;;;;;2.80;2.50;;;;;;;7.29;50.02;95885.28;5050655;28;20210;-68
2021/01/20 09:27:39;;;;;;;4.60;2.13;;;;;;;7.29;49.95;95890.50;5058555;28;20417;-69
2021/01/20 09:30:07;;;;;;;2.50;2.20;;;;;;;7.23;49.92;95892.78;5052599;28;20443;-69
2021/01/20 09:32:36;;;;;;;3.33;2.40;;;;;;;7.04;50.37;95898.31;5050539;28;20701;-69
2021/01/20 09:35:13;;;;;;;4.40;3.13;;;;;;;7.19;49.72;95895.88;5067421;28;20491;-68
2021/01/20 09:37:40;;;;;;;6.17;3.80;;;;;;;7.17;50.28;95897.81;5051744;28;20478;-69
2021/01/20 09:40:10;;;;;;;2.73;2.47;;;;;;;7.35;49.68;95884.63;5057593;28;20426;-69
2021/01/20 09:42:38;;;;;;;3.77;2.50;;;;;;;7.40;49.73;95877.13;5050774;28;20463;-70
2021/01/20 09:45:06;;;;;;;3.37;2.40;;;;;;;7.29;49.70;95874.88;5050807;28;20585;-69
2021/01/20 09:47:31;;;;;;;4.60;2.80;;;;;;;7.23;49.77;95877.13;5050696;28;20433;-70
2021/01/20 09:49:57;;;;;;;3.77;3.00;;;;;;;7.57;49.28;95874.47;5050361;28;20869;-69
2021/01/20 09:52:25;;;;;;;3.80;2.73;;;;;;;7.48;49.48;95882.34;5051260;28;20679;-69
2021/01/20 09:54:55;;;;;;;3.27;2.90;;;;;;;7.55;48.82;95879.06;5054333;28;20488;-69
2021/01/20 09:57:21;;;;;;;3.43;2.67;;;;;;;7.75;48.55;95882.13;5054312;28;20417;-69
2021/01/20 09:59:48;;;;;;;9.70;3.10;;;;;;;7.96;48.63;95876.34;5047214;28;20514;-68
2021/01/20 10:02:14;;;;;;;5.17;3.30;;;;;;;7.93;48.58;95868.88;5056213;28;20417;-68
2021/01/20 10:04:40;;;;;;;3.13;2.50;;;;;;;7.81;48.54;95863.19;5057584;28;20514;-70
2021/01/20 10:07:07;;;;;;;4.93;3.00;;;;;;;7.89;48.44;95855.34;5067096;28;20507;-69
2021/01/20 10:09:33;;;;;;;7.27;2.63;;;;;;;7.96;49.19;95860.69;5067378;28;20769;-69
2021/01/20 10:11:59;;;;;;;6.73;3.10;;;;;;;7.90;48.77;95853.56;5055677;28;20429;-71
2021/01/20 10:14:24;;;;;;;4.40;3.00;;;;;;;7.61;48.69;95842.72;5057385;28;20445;-70
2021/01/20 10:16:52;;;;;;;3.63;3.07;;;;;;;7.74;48.50;95842.19;5066416;28;20413;-71
2021/01/20 10:19:18;;;;;;;6.50;2.70;;;;;;;7.95;48.18;95832.97;5058925;28;20198;-70
2021/01/20 10:21:44;;;;;;;3.60;2.73;;;;;;;8.06;48.39;95829.19;5057926;28;20418;-69
2021/01/20 10:24:11;;;;;;;8.57;2.80;;;;;;;7.94;48.03;95824.34;5054434;28;20461;-70
2021/01/20 10:26:37;;;;;;;3.90;2.80;;;;;;;7.94;48.14;95821.75;5054465;28;20668;-70
2021/01/20 10:29:04;;;;;;;3.00;2.70;;;;;;;8.19;47.70;95823.44;5071426;28;20417;-70
2021/01/20 10:31:31;;;;;;;5.50;3.50;;;;;;;8.12;47.65;95818.09;5080947;28;20506;-70
2021/01/20 10:33:58;;;;;;;3.13;2.83;;;;;;;8.48;47.03;95814.16;5058893;28;20452;-71
2021/01/20 10:36:23;;;;;;;3.53;2.70;;;;;;;8.46;47.31;95807.25;5053268;28;20424;-70
2021/01/20 10:38:49;;;;;;;5.30;3.23;;;;;;;8.70;47.22;95809.91;5054425;28;21180;-70
2021/01/20 10:41:18;;;;;;;5.17;3.70;;;;;;;8.90;45.92;95805.84;5054532;28;20269;-71
2021/01/20 10:43:43;;;;;;;5.97;3.33;;;;;;;8.92;46.52;95805.69;5052821;28;20215;-69
2021/01/20 10:46:09;;;;;;;4.53;2.70;;;;;;;8.76;45.84;95801.38;5045894;28;20880;-70
2021/01/20 10:48:35;;;;;;;3.90;2.87;;;;;;;9.12;45.93;95803.38;5053575;28;20187;-69
2021/01/20 10:51:00;;;;;;;8.33;3.50;;;;;;;9.21;45.56;95804.94;5062244;28;20661;-68
2021/01/20 10:53:26;;;;;;;3.83;2.90;;;;;;;9.16;45.60;95802.03;5058430;28;20217;-70
2021/01/20 10:55:52;;;;;;;5.17;3.43;;;;;;;9.21;44.73;95798.88;5055417;28;20708;-68
2021/01/20 10:58:18;;;;;;;4.63;3.30;;;;;;;9.35;45.42;95795.47;5061255;28;20183;-69
2021/01/20 11:00:47;;;;;;;5.73;2.87;;;;;;;9.34;45.12;95788.63;5055543;28;20274;-68
2021/01/20 11:03:13;;;;;;;5.33;3.90;;;;;;;8.98;45.41;95778.84;5048471;28;20206;-66
2021/01/20 11:05:39;;;;;;;4.67;3.33;;;;;;;9.25;45.65;95784.47;5053347;28;20467;-67
2021/01/20 11:08:07;;;;;;;8.20;4.30;;;;;;;9.23;45.75;95775.97;5052651;28;20426;-68
2021/01/20 11:10:32;;;;;;;5.23;3.40;;;;;;;9.26;45.37;95773.03;5052864;28;20426;-68
2021/01/20 11:12:58;;;;;;;3.83;3.27;;;;;;;9.36;45.62;95772.78;5053860;28;20460;-67
2021/01/20 11:15:24;;;;;;;4.87;3.43;;;;;;;9.46;45.57;95767.25;5054889;28;20175;-68
2021/01/20 11:17:50;;;;;;;9.07;5.30;;;;;;;9.49;45.41;95762.50;5054481;28;20467;-69
2021/01/20 11:20:18;;;;;;;8.90;4.70;;;;;;;9.39;45.50;95756.69;5054863;28;20674;-66
2021/01/20 11:22:44;;;;;;;6.17;4.00;;;;;;;9.33;44.91;95749.59;5053959;28;20197;-67
2021/01/20 11:25:10;;;;;;;9.87;3.80;;;;;;;9.26;45.50;95749.50;5060969;28;20457;-67
2021/01/20 11:27:38;;;;;;;10.80;4.87;;;;;;;9.25;45.46;95742.63;5053236;28;20187;-68
2021/01/20 11:30:05;;;;;;;7.57;3.60;;;;;;;8.96;45.66;95746.03;5047029;28;20422;-68
2021/01/20 11:32:31;;;;;;;6.27;3.80;;;;;;;9.01;46.37;95739.28;5059313;28;20507;-69
2021/01/20 11:34:56;;;;;;;4.37;3.30;;;;;;;8.99;46.18;95735.25;5054561;28;20433;-68
2021/01/20 11:37:22;;;;;;;4.87;3.70;;;;;;;9.06;45.70;95736.97;5052967;28;20214;-67
2021/01/20 11:39:48;;;;;;;4.70;3.67;;;;;;;9.18;46.24;95728.69;5052647;28;20183;-68
2021/01/20 11:42:14;;;;;;;5.60;3.77;;;;;;;9.14;45.79;95732.63;5052498;28;20183;-68
2021/01/20 11:44:39;;;;;;;8.47;3.70;;;;;;;9.24;45.36;95735.78;5053044;28;20238;-70
2021/01/20 11:47:05;;;;;;;4.87;3.50;;;;;;;9.32;45.43;95722.66;5052043;28;20195;-68
2021/01/20 11:49:31;;;;;;;5.73;3.63;;;;;;;9.35;45.46;95721.47;5061880;28;20190;-67